sensor_id;sensor_type;location;lat;lon;timestamp;P1;durP1;ratioP1;P2;durP2;ratioP2
79410;SDS011;69635;50.964;6.948;2023-05-13T00:01:33;14.50;;;8.57;;
79410;SDS011;69635;50.964;6.948;2023-05-13T00:04:02;14.23;;;9.38;;
79410;SDS011;69635;50.964;6.948;2023-05-13T00:06:32;14.02;;;7.97;;
79410;SDS011;69635;50.964;6.948;2023-05-13T00:08:58;13.63;;;8.80;;
79410;SDS011;69635;50.964;6.948;2023-05-13T00:11:24;16.63;;;8.63;;
79410;SDS011;69635;50.964;6.948;2023-05-13T00:13:49;21.77;;;8.45;;
79410;SDS011;69635;50.964;6.948;2023-05-13T00:16:15;15.60;;;9.75;;
79410;SDS011;69635;50.964;6.948;2023-05-13T00:18:40;15.68;;;9.57;;
79410;SDS011;69635;50.964;6.948;2023-05-13T00:21:06;13.90;;;8.88;;
79410;SDS011;69635;50.964;6.948;2023-05-13T00:23:31;15.35;;;8.52;;
79410;SDS011;69635;50.964;6.948;2023-05-13T00:25:57;16.42;;;9.23;;
79410;SDS011;69635;50.964;6.948;2023-05-13T00:28:23;15.32;;;9.63;;
79410;SDS011;69635;50.964;6.948;2023-05-13T00:30:48;16.65;;;9.65;;
79410;SDS011;69635;50.964;6.948;2023-05-13T00:33:14;16.67;;;10.10;;
79410;SDS011;69635;50.964;6.948;2023-05-13T00:35:40;20.75;;;12.95;;
79410;SDS011;69635;50.964;6.948;2023-05-13T00:38:05;14.93;;;9.32;;
79410;SDS011;69635;50.964;6.948;2023-05-13T00:40:31;13.63;;;8.30;;
79410;SDS011;69635;50.964;6.948;2023-05-13T00:43:01;13.60;;;8.25;;
79410;SDS011;69635;50.964;6.948;2023-05-13T00:45:26;14.50;;;8.55;;
79410;SDS011;69635;50.964;6.948;2023-05-13T00:47:52;13.30;;;8.77;;
79410;SDS011;69635;50.964;6.948;2023-05-13T00:50:18;15.25;;;8.27;;
79410;SDS011;69635;50.964;6.948;2023-05-13T00:52:44;13.38;;;8.55;;
79410;SDS011;69635;50.964;6.948;2023-05-13T00:55:11;17.35;;;9.07;;
79410;SDS011;69635;50.964;6.948;2023-05-13T00:57:37;15.57;;;9.10;;
79410;SDS011;69635;50.964;6.948;2023-05-13T01:00:04;16.83;;;8.68;;
79410;SDS011;69635;50.964;6.948;2023-05-13T01:02:31;18.95;;;10.27;;
79410;SDS011;69635;50.964;6.948;2023-05-13T01:10:43;17.67;;;9.80;;
79410;SDS011;69635;50.964;6.948;2023-05-13T01:13:15;16.98;;;9.75;;
79410;SDS011;69635;50.964;6.948;2023-05-13T01:15:46;20.17;;;10.27;;
79410;SDS011;69635;50.964;6.948;2023-05-13T01:18:35;16.67;;;10.32;;
79410;SDS011;69635;50.964;6.948;2023-05-13T01:21:04;17.67;;;10.93;;
79410;SDS011;69635;50.964;6.948;2023-05-13T01:23:31;13.63;;;8.98;;
79410;SDS011;69635;50.964;6.948;2023-05-13T01:25:57;14.95;;;9.60;;
79410;SDS011;69635;50.964;6.948;2023-05-13T01:28:22;14.85;;;8.35;;
79410;SDS011;69635;50.964;6.948;2023-05-13T01:30:47;18.92;;;9.43;;
79410;SDS011;69635;50.964;6.948;2023-05-13T01:33:14;16.30;;;9.15;;
79410;SDS011;69635;50.964;6.948;2023-05-13T01:35:41;14.50;;;9.23;;
79410;SDS011;69635;50.964;6.948;2023-05-13T01:38:08;14.50;;;8.38;;
79410;SDS011;69635;50.964;6.948;2023-05-13T01:40:34;14.80;;;8.88;;
79410;SDS011;69635;50.964;6.948;2023-05-13T01:42:59;14.15;;;8.85;;
79410;SDS011;69635;50.964;6.948;2023-05-13T01:45:26;15.32;;;8.82;;
79410;SDS011;69635;50.964;6.948;2023-05-13T01:47:53;16.00;;;8.95;;
79410;SDS011;69635;50.964;6.948;2023-05-13T01:50:19;18.30;;;9.02;;
79410;SDS011;69635;50.964;6.948;2023-05-13T01:52:44;14.18;;;8.35;;
79410;SDS011;69635;50.964;6.948;2023-05-13T01:55:10;18.88;;;8.68;;
79410;SDS011;69635;50.964;6.948;2023-05-13T01:57:35;19.80;;;8.68;;
79410;SDS011;69635;50.964;6.948;2023-05-13T02:00:01;17.20;;;8.85;;
79410;SDS011;69635;50.964;6.948;2023-05-13T02:02:26;15.30;;;9.48;;
79410;SDS011;69635;50.964;6.948;2023-05-13T02:04:51;16.50;;;9.68;;
79410;SDS011;69635;50.964;6.948;2023-05-13T02:07:17;14.82;;;9.20;;
79410;SDS011;69635;50.964;6.948;2023-05-13T02:09:42;18.08;;;9.57;;
79410;SDS011;69635;50.964;6.948;2023-05-13T02:12:08;13.27;;;9.07;;
79410;SDS011;69635;50.964;6.948;2023-05-13T02:14:33;15.82;;;8.57;;
79410;SDS011;69635;50.964;6.948;2023-05-13T02:16:58;17.85;;;8.65;;
79410;SDS011;69635;50.964;6.948;2023-05-13T02:19:24;14.13;;;9.05;;
79410;SDS011;69635;50.964;6.948;2023-05-13T02:21:49;13.43;;;9.05;;
79410;SDS011;69635;50.964;6.948;2023-05-13T02:24:15;15.50;;;9.60;;
79410;SDS011;69635;50.964;6.948;2023-05-13T02:26:40;17.60;;;10.73;;
79410;SDS011;69635;50.964;6.948;2023-05-13T02:29:06;14.57;;;8.70;;
79410;SDS011;69635;50.964;6.948;2023-05-13T02:31:32;17.05;;;8.90;;
79410;SDS011;69635;50.964;6.948;2023-05-13T02:33:57;17.00;;;9.82;;
79410;SDS011;69635;50.964;6.948;2023-05-13T02:36:22;18.08;;;10.65;;
79410;SDS011;69635;50.964;6.948;2023-05-13T02:38:48;17.25;;;9.57;;
79410;SDS011;69635;50.964;6.948;2023-05-13T02:41:13;19.77;;;10.52;;
79410;SDS011;69635;50.964;6.948;2023-05-13T02:43:39;17.45;;;9.73;;
79410;SDS011;69635;50.964;6.948;2023-05-13T02:46:04;15.27;;;9.45;;
79410;SDS011;69635;50.964;6.948;2023-05-13T02:48:29;17.83;;;10.05;;
79410;SDS011;69635;50.964;6.948;2023-05-13T02:50:55;19.13;;;9.32;;
79410;SDS011;69635;50.964;6.948;2023-05-13T02:53:20;15.02;;;9.27;;
79410;SDS011;69635;50.964;6.948;2023-05-13T02:55:45;19.88;;;9.90;;
79410;SDS011;69635;50.964;6.948;2023-05-13T02:58:11;17.85;;;10.80;;
79410;SDS011;69635;50.964;6.948;2023-05-13T03:00:37;16.55;;;9.93;;
79410;SDS011;69635;50.964;6.948;2023-05-13T03:03:02;19.60;;;9.55;;
79410;SDS011;69635;50.964;6.948;2023-05-13T03:05:28;21.13;;;10.63;;
79410;SDS011;69635;50.964;6.948;2023-05-13T03:07:53;17.25;;;9.85;;
79410;SDS011;69635;50.964;6.948;2023-05-13T03:10:18;18.67;;;10.20;;
79410;SDS011;69635;50.964;6.948;2023-05-13T03:12:44;19.38;;;10.98;;
79410;SDS011;69635;50.964;6.948;2023-05-13T03:15:10;16.65;;;10.30;;
79410;SDS011;69635;50.964;6.948;2023-05-13T03:17:35;19.73;;;11.10;;
79410;SDS011;69635;50.964;6.948;2023-05-13T03:20:01;22.88;;;11.75;;
79410;SDS011;69635;50.964;6.948;2023-05-13T03:22:26;19.38;;;11.25;;
79410;SDS011;69635;50.964;6.948;2023-05-13T03:24:51;19.88;;;11.38;;
79410;SDS011;69635;50.964;6.948;2023-05-13T03:27:17;19.65;;;11.02;;
79410;SDS011;69635;50.964;6.948;2023-05-13T03:29:43;18.77;;;12.15;;
79410;SDS011;69635;50.964;6.948;2023-05-13T03:32:08;20.48;;;11.65;;
79410;SDS011;69635;50.964;6.948;2023-05-13T03:34:33;21.35;;;11.60;;
79410;SDS011;69635;50.964;6.948;2023-05-13T03:37:00;19.38;;;12.13;;
79410;SDS011;69635;50.964;6.948;2023-05-13T03:39:26;17.80;;;10.90;;
79410;SDS011;69635;50.964;6.948;2023-05-13T03:41:51;19.13;;;10.52;;
79410;SDS011;69635;50.964;6.948;2023-05-13T03:44:16;19.45;;;11.00;;
79410;SDS011;69635;50.964;6.948;2023-05-13T03:46:42;19.83;;;11.32;;
79410;SDS011;69635;50.964;6.948;2023-05-13T03:49:07;20.60;;;10.70;;
79410;SDS011;69635;50.964;6.948;2023-05-13T03:51:33;18.33;;;11.23;;
79410;SDS011;69635;50.964;6.948;2023-05-13T03:53:59;17.90;;;10.18;;
79410;SDS011;69635;50.964;6.948;2023-05-13T03:56:24;18.02;;;11.07;;
79410;SDS011;69635;50.964;6.948;2023-05-13T03:58:50;18.05;;;11.50;;
79410;SDS011;69635;50.964;6.948;2023-05-13T04:01:15;17.90;;;10.32;;
79410;SDS011;69635;50.964;6.948;2023-05-13T04:03:40;17.60;;;11.38;;
79410;SDS011;69635;50.964;6.948;2023-05-13T04:06:09;19.52;;;11.25;;
79410;SDS011;69635;50.964;6.948;2023-05-13T04:08:35;20.55;;;11.98;;
79410;SDS011;69635;50.964;6.948;2023-05-13T04:11:00;19.15;;;11.15;;
79410;SDS011;69635;50.964;6.948;2023-05-13T04:13:25;18.08;;;10.93;;
79410;SDS011;69635;50.964;6.948;2023-05-13T04:15:51;20.25;;;11.75;;
79410;SDS011;69635;50.964;6.948;2023-05-13T04:18:18;21.45;;;11.10;;
79410;SDS011;69635;50.964;6.948;2023-05-13T04:20:43;25.70;;;10.48;;
79410;SDS011;69635;50.964;6.948;2023-05-13T04:23:09;18.27;;;11.65;;
79410;SDS011;69635;50.964;6.948;2023-05-13T04:25:35;17.90;;;10.77;;
79410;SDS011;69635;50.964;6.948;2023-05-13T04:28:01;19.17;;;11.00;;
79410;SDS011;69635;50.964;6.948;2023-05-13T04:30:26;19.63;;;11.43;;
79410;SDS011;69635;50.964;6.948;2023-05-13T04:32:52;26.60;;;12.38;;
79410;SDS011;69635;50.964;6.948;2023-05-13T04:35:17;24.70;;;12.45;;
79410;SDS011;69635;50.964;6.948;2023-05-13T04:37:43;21.15;;;12.20;;
79410;SDS011;69635;50.964;6.948;2023-05-13T04:40:09;20.25;;;11.82;;
79410;SDS011;69635;50.964;6.948;2023-05-13T04:42:35;20.52;;;11.98;;
79410;SDS011;69635;50.964;6.948;2023-05-13T04:45:00;23.20;;;12.20;;
79410;SDS011;69635;50.964;6.948;2023-05-13T04:47:26;24.38;;;13.40;;
79410;SDS011;69635;50.964;6.948;2023-05-13T04:49:51;25.75;;;13.70;;
79410;SDS011;69635;50.964;6.948;2023-05-13T04:52:16;24.52;;;13.20;;
79410;SDS011;69635;50.964;6.948;2023-05-13T04:54:43;24.42;;;13.65;;
79410;SDS011;69635;50.964;6.948;2023-05-13T04:57:09;26.73;;;13.98;;
79410;SDS011;69635;50.964;6.948;2023-05-13T04:59:34;21.25;;;12.18;;
79410;SDS011;69635;50.964;6.948;2023-05-13T05:02:00;26.67;;;12.93;;
79410;SDS011;69635;50.964;6.948;2023-05-13T05:04:25;22.10;;;11.57;;
79410;SDS011;69635;50.964;6.948;2023-05-13T05:06:52;27.20;;;13.00;;
79410;SDS011;69635;50.964;6.948;2023-05-13T05:09:17;20.90;;;11.93;;
79410;SDS011;69635;50.964;6.948;2023-05-13T05:11:43;22.58;;;11.35;;
79410;SDS011;69635;50.964;6.948;2023-05-13T05:14:08;21.77;;;12.50;;
79410;SDS011;69635;50.964;6.948;2023-05-13T05:16:33;24.40;;;12.73;;
79410;SDS011;69635;50.964;6.948;2023-05-13T05:18:59;19.90;;;12.27;;
79410;SDS011;69635;50.964;6.948;2023-05-13T05:21:24;20.92;;;12.48;;
79410;SDS011;69635;50.964;6.948;2023-05-13T05:23:50;20.45;;;12.38;;
79410;SDS011;69635;50.964;6.948;2023-05-13T05:26:15;22.55;;;11.93;;
79410;SDS011;69635;50.964;6.948;2023-05-13T05:28:41;20.63;;;11.95;;
79410;SDS011;69635;50.964;6.948;2023-05-13T05:31:07;22.58;;;12.13;;
79410;SDS011;69635;50.964;6.948;2023-05-13T05:33:34;20.52;;;11.48;;
79410;SDS011;69635;50.964;6.948;2023-05-13T05:36:01;21.58;;;12.80;;
79410;SDS011;69635;50.964;6.948;2023-05-13T05:38:27;21.75;;;11.90;;
79410;SDS011;69635;50.964;6.948;2023-05-13T05:40:53;22.50;;;11.35;;
79410;SDS011;69635;50.964;6.948;2023-05-13T05:43:18;20.80;;;11.57;;
79410;SDS011;69635;50.964;6.948;2023-05-13T05:45:44;19.67;;;10.88;;
79410;SDS011;69635;50.964;6.948;2023-05-13T05:48:09;18.27;;;10.50;;
79410;SDS011;69635;50.964;6.948;2023-05-13T05:50:35;18.80;;;11.10;;
79410;SDS011;69635;50.964;6.948;2023-05-13T05:53:00;19.75;;;10.45;;
79410;SDS011;69635;50.964;6.948;2023-05-13T05:55:26;16.70;;;10.13;;
79410;SDS011;69635;50.964;6.948;2023-05-13T05:57:52;16.50;;;10.20;;
79410;SDS011;69635;50.964;6.948;2023-05-13T06:00:18;19.30;;;10.23;;
79410;SDS011;69635;50.964;6.948;2023-05-13T06:02:44;16.75;;;9.73;;
79410;SDS011;69635;50.964;6.948;2023-05-13T06:05:10;16.48;;;10.15;;
79410;SDS011;69635;50.964;6.948;2023-05-13T06:07:36;16.30;;;10.85;;
79410;SDS011;69635;50.964;6.948;2023-05-13T06:10:01;14.57;;;8.93;;
79410;SDS011;69635;50.964;6.948;2023-05-13T06:12:27;18.88;;;11.15;;
79410;SDS011;69635;50.964;6.948;2023-05-13T06:14:52;16.52;;;10.27;;
79410;SDS011;69635;50.964;6.948;2023-05-13T06:17:17;15.23;;;10.15;;
79410;SDS011;69635;50.964;6.948;2023-05-13T06:19:43;17.85;;;10.77;;
79410;SDS011;69635;50.964;6.948;2023-05-13T06:22:11;19.20;;;9.38;;
79410;SDS011;69635;50.964;6.948;2023-05-13T06:24:37;15.45;;;10.10;;
79410;SDS011;69635;50.964;6.948;2023-05-13T06:27:03;15.55;;;9.43;;
79410;SDS011;69635;50.964;6.948;2023-05-13T06:29:29;15.48;;;8.73;;
79410;SDS011;69635;50.964;6.948;2023-05-13T06:31:54;12.90;;;8.93;;
79410;SDS011;69635;50.964;6.948;2023-05-13T06:34:20;15.77;;;9.40;;
79410;SDS011;69635;50.964;6.948;2023-05-13T06:36:45;13.30;;;8.93;;
79410;SDS011;69635;50.964;6.948;2023-05-13T06:39:11;15.80;;;9.80;;
79410;SDS011;69635;50.964;6.948;2023-05-13T06:41:37;13.10;;;8.82;;
79410;SDS011;69635;50.964;6.948;2023-05-13T06:44:03;12.65;;;7.93;;
79410;SDS011;69635;50.964;6.948;2023-05-13T06:46:29;8.43;;;6.35;;
79410;SDS011;69635;50.964;6.948;2023-05-13T06:48:54;18.73;;;5.60;;
79410;SDS011;69635;50.964;6.948;2023-05-13T06:51:21;9.57;;;6.10;;
79410;SDS011;69635;50.964;6.948;2023-05-13T06:53:46;9.00;;;6.15;;
79410;SDS011;69635;50.964;6.948;2023-05-13T06:56:12;6.38;;;4.65;;
79410;SDS011;69635;50.964;6.948;2023-05-13T06:58:37;8.35;;;4.85;;
79410;SDS011;69635;50.964;6.948;2023-05-13T07:01:02;8.43;;;4.93;;
79410;SDS011;69635;50.964;6.948;2023-05-13T07:03:28;7.30;;;4.60;;
79410;SDS011;69635;50.964;6.948;2023-05-13T07:05:53;8.70;;;5.13;;
79410;SDS011;69635;50.964;6.948;2023-05-13T07:08:19;6.65;;;5.05;;
79410;SDS011;69635;50.964;6.948;2023-05-13T07:10:45;7.53;;;5.45;;
79410;SDS011;69635;50.964;6.948;2023-05-13T07:13:10;9.20;;;5.43;;
79410;SDS011;69635;50.964;6.948;2023-05-13T07:15:36;9.15;;;5.22;;
79410;SDS011;69635;50.964;6.948;2023-05-13T07:18:01;8.48;;;5.00;;
79410;SDS011;69635;50.964;6.948;2023-05-13T07:20:27;5.82;;;4.57;;
79410;SDS011;69635;50.964;6.948;2023-05-13T07:22:52;7.80;;;5.00;;
79410;SDS011;69635;50.964;6.948;2023-05-13T07:25:18;7.28;;;5.05;;
79410;SDS011;69635;50.964;6.948;2023-05-13T07:27:43;6.45;;;4.85;;
79410;SDS011;69635;50.964;6.948;2023-05-13T07:30:09;9.18;;;5.60;;
79410;SDS011;69635;50.964;6.948;2023-05-13T07:32:36;7.70;;;5.35;;
79410;SDS011;69635;50.964;6.948;2023-05-13T07:35:02;11.45;;;6.97;;
79410;SDS011;69635;50.964;6.948;2023-05-13T07:37:28;9.20;;;5.50;;
79410;SDS011;69635;50.964;6.948;2023-05-13T07:39:53;30.77;;;14.10;;
79410;SDS011;69635;50.964;6.948;2023-05-13T07:42:19;13.32;;;7.18;;
79410;SDS011;69635;50.964;6.948;2023-05-13T07:44:44;10.57;;;6.70;;
79410;SDS011;69635;50.964;6.948;2023-05-13T07:47:10;10.35;;;5.93;;
79410;SDS011;69635;50.964;6.948;2023-05-13T07:49:36;21.65;;;10.27;;
79410;SDS011;69635;50.964;6.948;2023-05-13T07:52:02;9.38;;;5.97;;
79410;SDS011;69635;50.964;6.948;2023-05-13T07:54:27;14.20;;;8.57;;
79410;SDS011;69635;50.964;6.948;2023-05-13T07:56:52;8.80;;;5.60;;
79410;SDS011;69635;50.964;6.948;2023-05-13T07:59:18;7.82;;;5.25;;
79410;SDS011;69635;50.964;6.948;2023-05-13T08:01:43;8.70;;;6.05;;
79410;SDS011;69635;50.964;6.948;2023-05-13T08:04:09;7.80;;;5.20;;
79410;SDS011;69635;50.964;6.948;2023-05-13T08:06:34;6.95;;;5.45;;
79410;SDS011;69635;50.964;6.948;2023-05-13T08:09:00;8.57;;;6.53;;
79410;SDS011;69635;50.964;6.948;2023-05-13T08:11:26;13.82;;;8.10;;
79410;SDS011;69635;50.964;6.948;2023-05-13T08:13:53;11.88;;;5.55;;
79410;SDS011;69635;50.964;6.948;2023-05-13T08:16:19;11.18;;;5.97;;
79410;SDS011;69635;50.964;6.948;2023-05-13T08:18:45;8.93;;;5.22;;
79410;SDS011;69635;50.964;6.948;2023-05-13T08:21:10;9.65;;;5.93;;
79410;SDS011;69635;50.964;6.948;2023-05-13T08:23:36;9.02;;;5.13;;
79410;SDS011;69635;50.964;6.948;2023-05-13T08:26:02;8.10;;;6.00;;
79410;SDS011;69635;50.964;6.948;2023-05-13T08:28:28;9.32;;;6.10;;
79410;SDS011;69635;50.964;6.948;2023-05-13T08:30:54;8.77;;;6.20;;
79410;SDS011;69635;50.964;6.948;2023-05-13T08:33:22;11.15;;;6.35;;
79410;SDS011;69635;50.964;6.948;2023-05-13T08:35:47;9.05;;;6.28;;
79410;SDS011;69635;50.964;6.948;2023-05-13T08:38:13;6.68;;;4.60;;
79410;SDS011;69635;50.964;6.948;2023-05-13T08:40:38;9.82;;;5.97;;
79410;SDS011;69635;50.964;6.948;2023-05-13T08:43:05;8.38;;;4.82;;
79410;SDS011;69635;50.964;6.948;2023-05-13T08:45:31;9.65;;;4.35;;
79410;SDS011;69635;50.964;6.948;2023-05-13T08:48:01;7.07;;;4.13;;
79410;SDS011;69635;50.964;6.948;2023-05-13T08:50:28;7.20;;;4.28;;
79410;SDS011;69635;50.964;6.948;2023-05-13T08:52:54;7.38;;;4.50;;
79410;SDS011;69635;50.964;6.948;2023-05-13T08:55:22;8.02;;;4.10;;
79410;SDS011;69635;50.964;6.948;2023-05-13T08:57:48;8.32;;;4.65;;
79410;SDS011;69635;50.964;6.948;2023-05-13T09:00:13;5.97;;;3.70;;
79410;SDS011;69635;50.964;6.948;2023-05-13T09:02:40;8.60;;;3.70;;
79410;SDS011;69635;50.964;6.948;2023-05-13T09:05:06;3.95;;;3.30;;
79410;SDS011;69635;50.964;6.948;2023-05-13T09:07:33;5.97;;;3.70;;
79410;SDS011;69635;50.964;6.948;2023-05-13T09:10:00;5.43;;;3.45;;
79410;SDS011;69635;50.964;6.948;2023-05-13T09:15:18;6.18;;;3.70;;
79410;SDS011;69635;50.964;6.948;2023-05-13T09:17:46;7.88;;;3.78;;
79410;SDS011;69635;50.964;6.948;2023-05-13T09:20:13;7.30;;;3.72;;
79410;SDS011;69635;50.964;6.948;2023-05-13T09:22:49;6.47;;;3.60;;
79410;SDS011;69635;50.964;6.948;2023-05-13T09:25:20;4.80;;;3.72;;
79410;SDS011;69635;50.964;6.948;2023-05-13T09:27:53;6.60;;;3.72;;
79410;SDS011;69635;50.964;6.948;2023-05-13T09:30:22;7.28;;;3.70;;
79410;SDS011;69635;50.964;6.948;2023-05-13T09:38:11;5.90;;;3.60;;
79410;SDS011;69635;50.964;6.948;2023-05-13T09:40:38;6.22;;;4.20;;
79410;SDS011;69635;50.964;6.948;2023-05-13T09:43:04;5.85;;;3.75;;
79410;SDS011;69635;50.964;6.948;2023-05-13T09:45:31;5.65;;;4.28;;
79410;SDS011;69635;50.964;6.948;2023-05-13T09:47:56;6.95;;;3.75;;
79410;SDS011;69635;50.964;6.948;2023-05-13T09:50:22;9.90;;;4.93;;
79410;SDS011;69635;50.964;6.948;2023-05-13T09:52:47;8.50;;;5.20;;
79410;SDS011;69635;50.964;6.948;2023-05-13T09:55:13;7.28;;;4.68;;
79410;SDS011;69635;50.964;6.948;2023-05-13T09:57:39;7.18;;;4.93;;
79410;SDS011;69635;50.964;6.948;2023-05-13T10:00:05;6.75;;;4.90;;
79410;SDS011;69635;50.964;6.948;2023-05-13T10:02:31;6.35;;;5.15;;
79410;SDS011;69635;50.964;6.948;2023-05-13T10:04:57;7.00;;;5.25;;
79410;SDS011;69635;50.964;6.948;2023-05-13T10:07:23;7.85;;;4.38;;
79410;SDS011;69635;50.964;6.948;2023-05-13T10:09:53;5.47;;;3.95;;
79410;SDS011;69635;50.964;6.948;2023-05-13T10:12:23;6.75;;;4.72;;
79410;SDS011;69635;50.964;6.948;2023-05-13T10:14:51;7.32;;;3.97;;
79410;SDS011;69635;50.964;6.948;2023-05-13T10:17:18;5.72;;;4.10;;
79410;SDS011;69635;50.964;6.948;2023-05-13T10:19:45;6.18;;;3.95;;
79410;SDS011;69635;50.964;6.948;2023-05-13T10:22:12;6.20;;;4.22;;
79410;SDS011;69635;50.964;6.948;2023-05-13T10:24:38;9.40;;;5.07;;
79410;SDS011;69635;50.964;6.948;2023-05-13T10:27:06;8.02;;;5.18;;
79410;SDS011;69635;50.964;6.948;2023-05-13T10:29:33;10.73;;;5.45;;
79410;SDS011;69635;50.964;6.948;2023-05-13T10:32:01;6.80;;;5.03;;
79410;SDS011;69635;50.964;6.948;2023-05-13T10:34:29;6.18;;;5.25;;
79410;SDS011;69635;50.964;6.948;2023-05-13T10:45:31;8.82;;;5.35;;
79410;SDS011;69635;50.964;6.948;2023-05-13T10:47:57;9.20;;;5.15;;
79410;SDS011;69635;50.964;6.948;2023-05-13T10:50:30;7.65;;;4.75;;
79410;SDS011;69635;50.964;6.948;2023-05-13T10:52:56;8.95;;;5.10;;
79410;SDS011;69635;50.964;6.948;2023-05-13T10:55:22;7.78;;;5.20;;
79410;SDS011;69635;50.964;6.948;2023-05-13T10:58:03;6.25;;;4.38;;
79410;SDS011;69635;50.964;6.948;2023-05-13T11:00:33;7.15;;;4.68;;
79410;SDS011;69635;50.964;6.948;2023-05-13T11:08:47;8.93;;;4.00;;
79410;SDS011;69635;50.964;6.948;2023-05-13T11:13:44;6.32;;;4.35;;
79410;SDS011;69635;50.964;6.948;2023-05-13T11:16:11;7.97;;;4.97;;
79410;SDS011;69635;50.964;6.948;2023-05-13T11:18:38;7.18;;;4.70;;
79410;SDS011;69635;50.964;6.948;2023-05-13T11:21:03;8.05;;;4.70;;
79410;SDS011;69635;50.964;6.948;2023-05-13T11:23:31;7.53;;;4.63;;
79410;SDS011;69635;50.964;6.948;2023-05-13T11:26:08;7.55;;;4.90;;
79410;SDS011;69635;50.964;6.948;2023-05-13T11:29:00;10.10;;;5.18;;
79410;SDS011;69635;50.964;6.948;2023-05-13T11:31:40;5.57;;;3.97;;
79410;SDS011;69635;50.964;6.948;2023-05-13T11:34:14;6.50;;;2.70;;
79410;SDS011;69635;50.964;6.948;2023-05-13T11:36:54;5.80;;;2.40;;
79410;SDS011;69635;50.964;6.948;2023-05-13T11:39:20;3.33;;;2.28;;
79410;SDS011;69635;50.964;6.948;2023-05-13T11:41:50;4.82;;;3.00;;
79410;SDS011;69635;50.964;6.948;2023-05-13T11:44:21;3.15;;;1.80;;
79410;SDS011;69635;50.964;6.948;2023-05-13T11:46:48;3.53;;;2.50;;
79410;SDS011;69635;50.964;6.948;2023-05-13T11:49:28;3.67;;;1.90;;
79410;SDS011;69635;50.964;6.948;2023-05-13T11:51:53;2.85;;;1.92;;
79410;SDS011;69635;50.964;6.948;2023-05-13T11:54:19;3.35;;;1.80;;
79410;SDS011;69635;50.964;6.948;2023-05-13T11:56:44;4.95;;;2.00;;
79410;SDS011;69635;50.964;6.948;2023-05-13T11:59:13;5.93;;;1.90;;
79410;SDS011;69635;50.964;6.948;2023-05-13T12:01:39;3.97;;;1.92;;
79410;SDS011;69635;50.964;6.948;2023-05-13T12:04:04;4.60;;;1.75;;
79410;SDS011;69635;50.964;6.948;2023-05-13T12:06:29;2.05;;;1.80;;
79410;SDS011;69635;50.964;6.948;2023-05-13T12:09:03;2.60;;;1.75;;
79410;SDS011;69635;50.964;6.948;2023-05-13T12:11:29;5.57;;;1.95;;
79410;SDS011;69635;50.964;6.948;2023-05-13T12:13:55;5.05;;;2.95;;
79410;SDS011;69635;50.964;6.948;2023-05-13T12:16:22;3.50;;;1.90;;
79410;SDS011;69635;50.964;6.948;2023-05-13T12:18:55;4.38;;;1.80;;
79410;SDS011;69635;50.964;6.948;2023-05-13T12:21:23;2.58;;;1.63;;
79410;SDS011;69635;50.964;6.948;2023-05-13T12:23:49;2.47;;;1.60;;
79410;SDS011;69635;50.964;6.948;2023-05-13T12:26:14;4.13;;;1.70;;
79410;SDS011;69635;50.964;6.948;2023-05-13T12:28:40;3.38;;;1.88;;
79410;SDS011;69635;50.964;6.948;2023-05-13T12:31:05;5.55;;;1.90;;
79410;SDS011;69635;50.964;6.948;2023-05-13T12:33:31;2.47;;;1.52;;
79410;SDS011;69635;50.964;6.948;2023-05-13T12:36:14;11.45;;;4.13;;
79410;SDS011;69635;50.964;6.948;2023-05-13T12:38:57;4.60;;;2.35;;
79410;SDS011;69635;50.964;6.948;2023-05-13T12:41:25;3.85;;;1.80;;
79410;SDS011;69635;50.964;6.948;2023-05-13T12:46:34;3.63;;;1.80;;
79410;SDS011;69635;50.964;6.948;2023-05-13T12:49:01;5.20;;;2.20;;
79410;SDS011;69635;50.964;6.948;2023-05-13T12:51:28;3.20;;;1.48;;
79410;SDS011;69635;50.964;6.948;2023-05-13T12:53:56;2.42;;;1.75;;
79410;SDS011;69635;50.964;6.948;2023-05-13T12:56:22;3.42;;;2.05;;
79410;SDS011;69635;50.964;6.948;2023-05-13T12:58:49;3.47;;;1.75;;
79410;SDS011;69635;50.964;6.948;2023-05-13T13:01:15;1.90;;;1.35;;
79410;SDS011;69635;50.964;6.948;2023-05-13T13:03:41;7.70;;;1.88;;
79410;SDS011;69635;50.964;6.948;2023-05-13T13:06:10;3.08;;;1.60;;
79410;SDS011;69635;50.964;6.948;2023-05-13T13:08:36;2.10;;;1.42;;
79410;SDS011;69635;50.964;6.948;2023-05-13T13:11:02;2.33;;;1.50;;
79410;SDS011;69635;50.964;6.948;2023-05-13T13:13:28;2.75;;;1.50;;
79410;SDS011;69635;50.964;6.948;2023-05-13T13:15:54;2.65;;;2.03;;
79410;SDS011;69635;50.964;6.948;2023-05-13T13:18:19;2.78;;;1.70;;
79410;SDS011;69635;50.964;6.948;2023-05-13T13:20:45;2.33;;;1.77;;
79410;SDS011;69635;50.964;6.948;2023-05-13T13:23:10;6.95;;;1.63;;
79410;SDS011;69635;50.964;6.948;2023-05-13T13:25:36;3.50;;;2.00;;
79410;SDS011;69635;50.964;6.948;2023-05-13T13:28:01;2.88;;;1.77;;
79410;SDS011;69635;50.964;6.948;2023-05-13T13:30:27;2.58;;;1.63;;
79410;SDS011;69635;50.964;6.948;2023-05-13T13:32:52;2.20;;;1.60;;
79410;SDS011;69635;50.964;6.948;2023-05-13T13:35:18;2.15;;;1.30;;
79410;SDS011;69635;50.964;6.948;2023-05-13T13:37:43;2.42;;;1.48;;
79410;SDS011;69635;50.964;6.948;2023-05-13T13:40:18;2.28;;;1.50;;
79410;SDS011;69635;50.964;6.948;2023-05-13T13:42:43;3.25;;;1.40;;
79410;SDS011;69635;50.964;6.948;2023-05-13T13:45:09;1.98;;;1.27;;
79410;SDS011;69635;50.964;6.948;2023-05-13T13:47:35;2.47;;;1.33;;
79410;SDS011;69635;50.964;6.948;2023-05-13T13:50:01;1.70;;;1.10;;
79410;SDS011;69635;50.964;6.948;2023-05-13T13:52:26;1.80;;;1.40;;
79410;SDS011;69635;50.964;6.948;2023-05-13T13:54:52;2.85;;;1.30;;
79410;SDS011;69635;50.964;6.948;2023-05-13T13:57:18;2.17;;;1.20;;
79410;SDS011;69635;50.964;6.948;2023-05-13T13:59:44;2.58;;;1.40;;
79410;SDS011;69635;50.964;6.948;2023-05-13T14:02:18;2.40;;;1.45;;
79410;SDS011;69635;50.964;6.948;2023-05-13T14:04:44;3.08;;;1.50;;
79410;SDS011;69635;50.964;6.948;2023-05-13T14:07:10;2.50;;;1.52;;
79410;SDS011;69635;50.964;6.948;2023-05-13T14:09:35;2.00;;;1.80;;
79410;SDS011;69635;50.964;6.948;2023-05-13T14:12:04;3.40;;;2.38;;
79410;SDS011;69635;50.964;6.948;2023-05-13T14:14:29;3.30;;;1.80;;
79410;SDS011;69635;50.964;6.948;2023-05-13T14:16:55;3.17;;;1.70;;
79410;SDS011;69635;50.964;6.948;2023-05-13T14:19:20;3.47;;;1.88;;
79410;SDS011;69635;50.964;6.948;2023-05-13T14:21:46;3.58;;;2.05;;
79410;SDS011;69635;50.964;6.948;2023-05-13T14:24:11;3.58;;;1.98;;
79410;SDS011;69635;50.964;6.948;2023-05-13T14:26:37;4.68;;;2.22;;
79410;SDS011;69635;50.964;6.948;2023-05-13T14:29:05;2.28;;;1.67;;
79410;SDS011;69635;50.964;6.948;2023-05-13T14:31:30;4.28;;;2.03;;
79410;SDS011;69635;50.964;6.948;2023-05-13T14:33:56;2.42;;;1.88;;
79410;SDS011;69635;50.964;6.948;2023-05-13T14:36:22;2.72;;;2.38;;
79410;SDS011;69635;50.964;6.948;2023-05-13T14:38:50;3.00;;;1.92;;
79410;SDS011;69635;50.964;6.948;2023-05-13T14:41:16;2.80;;;1.50;;
79410;SDS011;69635;50.964;6.948;2023-05-13T14:43:46;3.75;;;2.08;;
79410;SDS011;69635;50.964;6.948;2023-05-13T14:46:12;2.92;;;2.20;;
79410;SDS011;69635;50.964;6.948;2023-05-13T14:48:37;3.22;;;1.95;;
79410;SDS011;69635;50.964;6.948;2023-05-13T14:51:03;4.50;;;2.63;;
79410;SDS011;69635;50.964;6.948;2023-05-13T14:53:28;4.85;;;2.63;;
79410;SDS011;69635;50.964;6.948;2023-05-13T14:55:54;2.78;;;1.83;;
79410;SDS011;69635;50.964;6.948;2023-05-13T14:58:19;2.60;;;1.92;;
79410;SDS011;69635;50.964;6.948;2023-05-13T15:00:45;4.78;;;2.10;;
79410;SDS011;69635;50.964;6.948;2023-05-13T15:03:10;2.90;;;1.85;;
79410;SDS011;69635;50.964;6.948;2023-05-13T15:05:36;3.80;;;1.83;;
79410;SDS011;69635;50.964;6.948;2023-05-13T15:08:01;3.10;;;1.80;;